Time;durP1;ratioP1;P1;durP2;ratioP2;P2;SDS_P1;SDS_P2;PMS_P1;PMS_P2;Temp;Humidity;BMP_temperature;BMP_pressure;BME280_temperature;BME280_humidity;BME280_pressure;Samples;Min_cycle;Max_cycle;Signal;HPM_P1;HPM_P2
2023/12/18 00:00:17;;;;;;;0.60;0.60;;;;;;;6.34;100.00;100483.16;5064461;28;20108;-69
2023/12/18 00:02:42;;;;;;;0.40;0.40;;;;;;;6.33;100.00;100471.09;5046422;28;20036;-68
2023/12/18 00:05:09;;;;;;;0.40;0.40;;;;;;;6.34;100.00;100472.84;5046444;28;20021;-68
2023/12/18 00:07:34;;;;;;;0.40;0.40;;;;;;;6.28;100.00;100460.72;5064550;28;20169;-68
2023/12/18 00:09:59;;;;;;;0.40;0.40;;;;;;;6.34;100.00;100479.69;5064688;28;20588;-67
2023/12/18 00:12:25;;;;;;;0.40;0.40;;;;;;;6.34;100.00;100467.66;5064313;28;20025;-67
2023/12/18 00:14:51;;;;;;;0.40;0.40;;;;;;;6.29;100.00;100462.44;5064192;28;20041;-68
2023/12/18 00:17:16;;;;;;;0.40;0.40;;;;;;;6.35;100.00;100466.81;5063948;28;20068;-68
2023/12/18 00:19:41;;;;;;;0.40;0.40;;;;;;;6.32;100.00;100453.88;5064444;28;20108;-68
2023/12/18 00:22:07;;;;;;;0.40;0.40;;;;;;;6.37;100.00;100464.25;5064286;28;20027;-68
2023/12/18 00:24:32;;;;;;;0.40;0.40;;;;;;;6.38;100.00;100448.78;5064351;28;20033;-67
2023/12/18 00:26:58;;;;;;;0.40;0.40;;;;;;;6.36;100.00;100455.63;5064063;28;20092;-67
2023/12/18 00:29:23;;;;;;;0.30;0.30;;;;;;;6.40;100.00;100465.16;5046548;28;20078;-67
2023/12/18 00:31:48;;;;;;;0.40;0.40;;;;;;;6.38;100.00;100466.84;5063995;28;20021;-67
2023/12/18 00:34:14;;;;;;;0.35;0.35;;;;;;;6.43;100.00;100466.88;5064148;28;20036;-67
2023/12/18 00:36:39;;;;;;;0.40;0.40;;;;;;;6.40;100.00;100462.56;5046766;28;20060;-68
2023/12/18 00:39:05;;;;;;;0.40;0.40;;;;;;;6.39;100.00;100483.19;5049860;28;20040;-67
2023/12/18 00:41:31;;;;;;;0.40;0.40;;;;;;;6.39;100.00;100484.03;5067646;28;20028;-67
2023/12/18 00:43:57;;;;;;;0.40;0.40;;;;;;;6.40;100.00;100493.53;5067765;28;20036;-69
2023/12/18 00:46:22;;;;;;;0.40;0.40;;;;;;;6.41;100.00;100495.25;5067422;28;20044;-68
2023/12/18 00:48:48;;;;;;;0.30;0.30;;;;;;;6.41;100.00;100508.13;5067624;28;20025;-68
2023/12/18 00:51:13;;;;;;;0.40;0.40;;;;;;;6.42;100.00;100512.44;5049536;28;20028;-68
2023/12/18 00:53:38;;;;;;;0.40;0.40;;;;;;;6.42;100.00;100509.00;5049325;28;20029;-68
2023/12/18 00:56:04;;;;;;;0.40;0.40;;;;;;;6.43;100.00;100514.19;5049578;28;20025;-68
2023/12/18 00:58:29;;;;;;;0.40;0.40;;;;;;;6.42;100.00;100499.53;5049551;28;20025;-68
2023/12/18 01:00:55;;;;;;;0.40;0.40;;;;;;;6.42;100.00;100504.69;5067460;28;20021;-69
2023/12/18 01:03:20;;;;;;;0.40;0.40;;;;;;;6.39;100.00;100509.81;5067339;28;20027;-68
2023/12/18 01:05:46;;;;;;;0.40;0.40;;;;;;;6.35;100.00;100499.47;5067435;28;20637;-67
2023/12/18 01:08:12;;;;;;;0.35;0.35;;;;;;;6.35;100.00;100513.22;5067324;28;20025;-67
2023/12/18 01:10:38;;;;;;;0.35;0.35;;;;;;;6.33;100.00;100517.50;5049325;28;20024;-67
2023/12/18 01:13:03;;;;;;;0.40;0.40;;;;;;;6.32;100.00;100516.66;5067126;28;20501;-68
2023/12/18 01:15:29;;;;;;;0.40;0.40;;;;;;;6.30;100.00;100517.47;5048762;28;20139;-67
2023/12/18 01:17:54;;;;;;;0.40;0.40;;;;;;;6.17;100.00;100501.00;5066873;28;20024;-67
2023/12/18 01:20:19;;;;;;;0.38;0.38;;;;;;;6.26;100.00;100528.59;5066958;28;20021;-67
2023/12/18 01:22:45;;;;;;;0.30;0.30;;;;;;;6.23;100.00;100521.69;5066948;28;20036;-68
2023/12/18 01:25:10;;;;;;;0.40;0.40;;;;;;;6.23;100.00;100523.41;5067058;28;20020;-69
2023/12/18 01:27:36;;;;;;;0.40;0.40;;;;;;;6.24;100.00;100530.28;5048916;28;20027;-68
2023/12/18 01:30:02;;;;;;;0.40;0.40;;;;;;;6.20;100.00;100507.06;5067051;28;20088;-68
2023/12/18 01:32:27;;;;;;;0.40;0.40;;;;;;;6.20;100.00;100512.22;5066648;28;20020;-68
2023/12/18 01:34:53;;;;;;;0.40;0.40;;;;;;;6.21;100.00;100515.66;5066772;28;20036;-67
2023/12/18 01:37:18;;;;;;;0.40;0.40;;;;;;;6.25;100.00;100524.28;5066649;28;20048;-67
2023/12/18 01:39:43;;;;;;;0.30;0.30;;;;;;;6.23;100.00;100518.25;5066648;28;20322;-66
2023/12/18 01:42:09;;;;;;;0.40;0.40;;;;;;;6.20;100.00;100496.75;5066596;28;20500;-67
2023/12/18 01:44:34;;;;;;;0.30;0.30;;;;;;;6.20;100.00;100507.06;5066759;28;20052;-66
2023/12/18 01:47:00;;;;;;;0.40;0.40;;;;;;;6.18;100.00;100503.56;5066225;28;20023;-67
2023/12/18 01:49:25;;;;;;;0.40;0.40;;;;;;;6.19;100.00;100501.88;5066552;28;20025;-67
2023/12/18 01:51:51;;;;;;;0.40;0.40;;;;;;;6.18;100.00;100508.72;5066538;28;20028;-69
2023/12/18 01:54:19;;;;;;;0.40;0.40;;;;;;;6.17;100.00;100507.03;5048510;28;20025;-68
2023/12/18 01:56:45;;;;;;;0.30;0.30;;;;;;;6.17;100.00;100498.41;5066340;28;20021;-67
2023/12/18 01:59:11;;;;;;;0.30;0.30;;;;;;;6.14;100.00;100493.22;5066320;28;20025;-67
2023/12/18 02:01:37;;;;;;;0.40;0.40;;;;;;;6.13;100.00;100483.75;5065104;28;20269;-66
2023/12/18 02:04:03;;;;;;;0.30;0.30;;;;;;;6.09;100.00;100490.59;5065562;28;20021;-67
2023/12/18 02:06:28;;;;;;;0.35;0.35;;;;;;;6.10;100.00;100497.50;5066145;28;20021;-67
2023/12/18 02:08:55;;;;;;;0.30;0.30;;;;;;;6.12;100.00;100492.34;5066169;28;20031;-67
2023/12/18 02:11:20;;;;;;;0.40;0.40;;;;;;;6.12;100.00;100503.50;5065823;28;20032;-68
2023/12/18 02:13:46;;;;;;;0.40;0.40;;;;;;;6.11;100.00;100494.06;5065887;28;20025;-68
2023/12/18 02:16:11;;;;;;;0.40;0.40;;;;;;;6.13;100.00;100494.06;5065726;28;20060;-69
2023/12/18 02:18:45;;;;;;;0.40;0.40;;;;;;;6.13;100.00;100491.50;5065981;28;20056;-67
2023/12/18 02:21:10;;;;;;;0.40;0.40;;;;;;;6.14;100.00;100506.09;5065803;28;20032;-67
2023/12/18 02:23:35;;;;;;;0.40;0.40;;;;;;;6.11;100.00;100512.09;5065772;28;20025;-67
2023/12/18 02:26:01;;;;;;;0.40;0.40;;;;;;;6.09;100.00;100500.91;5065943;28;20031;-67
2023/12/18 02:28:27;;;;;;;0.38;0.38;;;;;;;6.14;100.00;100500.94;5065722;28;20020;-68
2023/12/18 02:30:53;;;;;;;0.40;0.40;;;;;;;6.19;100.00;100497.59;5065969;28;20028;-67
2023/12/18 02:33:18;;;;;;;0.40;0.40;;;;;;;6.21;100.00;100495.03;5065496;28;20079;-67
2023/12/18 02:35:43;;;;;;;0.40;0.40;;;;;;;6.22;100.00;100485.56;5065493;28;20032;-67
2023/12/18 02:38:09;;;;;;;0.40;0.40;;;;;;;6.25;100.00;100503.66;5065608;28;20021;-66
2023/12/18 02:40:35;;;;;;;0.40;0.40;;;;;;;6.24;100.00;100492.50;5047599;28;20021;-67
2023/12/18 02:43:01;;;;;;;0.40;0.40;;;;;;;6.25;100.00;100485.59;5065556;28;20021;-66
2023/12/18 02:45:26;;;;;;;0.40;0.40;;;;;;;6.26;100.00;100485.63;5065525;28;20043;-67
2023/12/18 02:47:52;;;;;;;0.40;0.40;;;;;;;6.34;100.00;100490.00;5047078;28;20138;-66
2023/12/18 02:50:17;;;;;;;0.40;0.40;;;;;;;6.34;100.00;100493.47;5047277;28;20370;-66
2023/12/18 02:52:43;;;;;;;0.40;0.40;;;;;;;6.40;100.00;100493.53;5065118;28;20035;-67
2023/12/18 02:55:11;;;;;;;0.40;0.40;;;;;;;6.40;100.00;100485.78;5065243;28;20047;-66
2023/12/18 02:57:36;;;;;;;0.40;0.40;;;;;;;6.45;100.00;100507.31;5047096;28;20029;-67
2023/12/18 03:00:03;;;;;;;0.40;0.40;;;;;;;6.50;100.00;100494.44;5064688;28;20402;-67
2023/12/18 03:02:28;;;;;;;0.35;0.35;;;;;;;6.54;100.00;100495.34;5064723;28;20021;-66
2023/12/18 03:04:53;;;;;;;0.40;0.40;;;;;;;6.59;100.00;100490.25;5065180;28;20039;-67
2023/12/18 03:07:19;;;;;;;0.40;0.40;;;;;;;6.61;100.00;100479.09;5064957;28;20075;-66
2023/12/18 03:09:44;;;;;;;0.40;0.40;;;;;;;6.71;100.00;100482.59;5064953;28;20029;-67
2023/12/18 03:12:10;;;;;;;0.40;0.40;;;;;;;6.77;100.00;100484.41;5065083;28;20494;-66
2023/12/18 03:14:35;;;;;;;0.40;0.40;;;;;;;6.79;100.00;100480.09;5064633;28;20060;-65
2023/12/18 03:17:00;;;;;;;0.40;0.40;;;;;;;6.87;100.00;100478.44;5046315;28;20036;-66
2023/12/18 03:19:26;;;;;;;0.40;0.40;;;;;;;6.91;100.00;100466.44;5047085;28;20481;-67
2023/12/18 03:21:51;;;;;;;0.40;0.40;;;;;;;6.96;100.00;100469.91;5064701;28;20100;-67
2023/12/18 03:24:16;;;;;;;0.40;0.40;;;;;;;7.02;100.00;100474.25;5046750;28;20025;-67
2023/12/18 03:26:42;;;;;;;0.40;0.40;;;;;;;7.05;100.00;100469.09;5064837;28;20055;-68
2023/12/18 03:29:07;;;;;;;0.40;0.40;;;;;;;7.11;100.00;100473.47;5064890;28;20040;-67
2023/12/18 03:31:32;;;;;;;0.40;0.40;;;;;;;7.10;100.00;100475.19;5064698;28;20063;-68
2023/12/18 03:33:58;;;;;;;0.40;0.40;;;;;;;7.08;100.00;100463.97;5064619;28;20029;-67
2023/12/18 03:36:23;;;;;;;0.40;0.40;;;;;;;7.13;100.00;100456.25;5064282;28;20048;-66
2023/12/18 03:38:49;;;;;;;0.40;0.40;;;;;;;7.16;100.00;100475.22;5064688;28;20021;-67
2023/12/18 03:41:14;;;;;;;0.40;0.40;;;;;;;7.17;100.00;100465.75;5064653;28;20020;-67
2023/12/18 03:43:40;;;;;;;0.40;0.40;;;;;;;7.15;100.00;100467.47;5064605;28;20481;-67
2023/12/18 03:46:06;;;;;;;0.40;0.40;;;;;;;7.16;100.00;100467.47;5064745;28;20020;-66
2023/12/18 03:48:32;;;;;;;0.40;0.40;;;;;;;7.15;100.00;100454.56;5064306;28;20032;-67
2023/12/18 03:50:57;;;;;;;0.30;0.30;;;;;;;7.15;100.00;100449.38;5046787;28;20021;-67
2023/12/18 03:53:22;;;;;;;0.40;0.40;;;;;;;7.10;100.00;100454.53;5046681;28;20031;-67
2023/12/18 03:55:48;;;;;;;0.40;0.40;;;;;;;7.04;100.00;100446.75;5064188;28;20017;-64
2023/12/18 03:58:13;;;;;;;0.40;0.40;;;;;;;7.10;100.00;100482.06;5046289;28;20025;-67
2023/12/18 04:00:39;;;;;;;0.40;0.40;;;;;;;7.07;100.00;100478.63;5064100;28;20032;-69
2023/12/18 04:03:04;;;;;;;0.40;0.40;;;;;;;7.05;100.00;100494.94;5064299;28;20021;-67
2023/12/18 04:05:30;;;;;;;0.40;0.40;;;;;;;7.00;100.00;100488.84;5064578;28;20435;-68
2023/12/18 04:07:56;;;;;;;0.40;0.40;;;;;;;7.01;100.00;100500.94;5046153;28;20035;-68
2023/12/18 04:10:21;;;;;;;0.40;0.40;;;;;;;6.92;100.00;100502.56;5064340;28;20176;-67
2023/12/18 04:12:46;;;;;;;0.40;0.40;;;;;;;6.92;100.00;100499.13;5066574;28;20028;-68
2023/12/18 04:15:12;;;;;;;0.40;0.40;;;;;;;6.98;100.00;100488.84;5049799;28;20080;-68
2023/12/18 04:17:37;;;;;;;0.40;0.40;;;;;;;6.93;100.00;100473.31;5049654;28;20099;-67
2023/12/18 04:20:04;;;;;;;0.40;0.40;;;;;;;6.92;100.00;100484.50;5068218;28;20024;-67
2023/12/18 04:22:30;;;;;;;0.40;0.40;;;;;;;6.89;100.00;100484.50;5049995;28;20021;-67
2023/12/18 04:24:55;;;;;;;0.40;0.40;;;;;;;6.90;100.00;100477.63;5068118;28;20036;-68
2023/12/18 04:27:21;;;;;;;0.30;0.30;;;;;;;6.89;100.00;100478.44;5049937;28;20027;-68
2023/12/18 04:29:46;;;;;;;0.40;0.40;;;;;;;6.88;100.00;100481.91;5050024;28;20020;-68
2023/12/18 04:32:11;;;;;;;0.30;0.30;;;;;;;6.88;100.00;100485.34;5067743;28;20032;-68
2023/12/18 04:34:37;;;;;;;0.40;0.40;;;;;;;6.87;100.00;100493.94;5049738;28;20024;-68
2023/12/18 04:37:02;;;;;;;0.40;0.40;;;;;;;6.85;100.00;100487.03;5067525;28;20028;-68
2023/12/18 04:39:27;;;;;;;0.38;0.38;;;;;;;6.85;100.00;100471.56;5068186;28;20016;-68
2023/12/18 04:41:53;;;;;;;0.40;0.40;;;;;;;6.90;100.00;100486.22;5049668;28;20028;-67
2023/12/18 04:44:18;;;;;;;0.30;0.30;;;;;;;6.91;100.00;100472.47;5067622;28;20036;-67
2023/12/18 04:46:43;;;;;;;0.40;0.40;;;;;;;6.91;100.00;100466.44;5049773;28;20043;-67
2023/12/18 04:49:09;;;;;;;0.30;0.30;;;;;;;6.91;100.00;100475.06;5067435;28;20025;-67
2023/12/18 04:51:35;;;;;;;0.40;0.40;;;;;;;6.89;100.00;100474.16;5067263;28;20036;-68
2023/12/18 04:54:01;;;;;;;0.30;0.30;;;;;;;6.92;100.00;100476.78;5067626;28;20024;-67
2023/12/18 04:56:26;;;;;;;0.40;0.40;;;;;;;6.92;100.00;100487.09;5067158;28;20058;-68
2023/12/18 04:58:52;;;;;;;0.40;0.40;;;;;;;6.96;100.00;100490.56;5049175;28;20112;-68
2023/12/18 05:01:17;;;;;;;0.40;0.40;;;;;;;6.99;100.00;100495.75;5067376;28;20025;-69
2023/12/18 05:03:42;;;;;;;0.40;0.40;;;;;;;7.00;100.00;100500.06;5067197;28;20106;-69
2023/12/18 05:06:22;;;;;;;0.32;0.32;;;;;;;7.02;100.00;100507.81;5067581;28;20016;-64
2023/12/18 05:08:48;;;;;;;0.40;0.40;;;;;;;7.01;100.00;100511.25;5066843;28;20045;-66
2023/12/18 05:11:17;;;;;;;0.40;0.40;;;;;;;7.02;100.00;100508.69;5067070;28;20057;-65
2023/12/18 05:13:42;;;;;;;0.40;0.40;;;;;;;6.99;100.00;100505.22;5067192;28;20034;-65
2023/12/18 05:16:08;;;;;;;0.40;0.40;;;;;;;6.98;100.00;100517.25;5066698;28;20041;-67
2023/12/18 05:18:33;;;;;;;0.30;0.30;;;;;;;6.84;100.00;100496.47;5066737;28;20028;-65
2023/12/18 05:20:59;;;;;;;0.40;0.40;;;;;;;6.95;100.00;100519.78;5066933;28;20029;-66
2023/12/18 05:23:24;;;;;;;0.40;0.40;;;;;;;6.94;100.00;100528.41;5048588;28;20063;-66
2023/12/18 05:25:50;;;;;;;0.40;0.40;;;;;;;6.91;100.00;100529.25;5066958;28;20021;-66
2023/12/18 05:28:16;;;;;;;0.30;0.30;;;;;;;6.94;100.00;100521.53;5048978;28;20116;-67
2023/12/18 05:30:41;;;;;;;0.40;0.40;;;;;;;6.96;100.00;100525.84;5066601;28;20025;-68
2023/12/18 05:33:08;;;;;;;0.40;0.40;;;;;;;6.99;100.00;100529.31;5066511;28;20021;-67
2023/12/18 05:35:33;;;;;;;0.40;0.40;;;;;;;6.96;100.00;100520.66;5066620;28;20048;-67
2023/12/18 05:37:59;;;;;;;0.30;0.30;;;;;;;6.88;100.00;100521.47;5048103;28;20021;-66
2023/12/18 05:40:24;;;;;;;0.35;0.35;;;;;;;6.84;100.00;100527.44;5049136;28;20092;-67
2023/12/18 05:42:50;;;;;;;0.40;0.40;;;;;;;6.82;100.00;100524.84;5066516;28;20051;-65
2023/12/18 05:45:15;;;;;;;0.40;0.40;;;;;;;6.78;100.00;100522.25;5048909;28;20032;-66
2023/12/18 05:47:41;;;;;;;0.40;0.40;;;;;;;6.71;100.00;100508.41;5066130;28;20021;-66
2023/12/18 05:50:06;;;;;;;0.40;0.40;;;;;;;6.72;100.00;100510.16;5048353;28;20021;-66
2023/12/18 05:52:32;;;;;;;0.40;0.40;;;;;;;6.65;100.00;100516.09;5066631;28;20032;-66
2023/12/18 05:54:57;;;;;;;0.40;0.40;;;;;;;6.65;100.00;100529.88;5066558;28;20542;-66
2023/12/18 05:57:22;;;;;;;0.30;0.30;;;;;;;6.63;100.00;100531.56;5066255;28;20399;-67
2023/12/18 05:59:48;;;;;;;0.40;0.40;;;;;;;6.63;100.00;100536.72;5065954;28;20044;-67
2023/12/18 06:02:13;;;;;;;0.40;0.40;;;;;;;6.59;100.00;100532.38;5064917;28;20056;-67
2023/12/18 06:04:41;;;;;;;0.40;0.40;;;;;;;6.62;100.00;100547.91;5065697;28;20013;-66
2023/12/18 06:07:07;;;;;;;0.40;0.40;;;;;;;6.61;100.00;100546.19;5066288;28;20021;-66
2023/12/18 06:09:32;;;;;;;0.40;0.40;;;;;;;6.61;100.00;100543.59;5048234;28;20036;-67
2023/12/18 06:11:58;;;;;;;0.40;0.40;;;;;;;6.64;100.00;100553.06;5048170;28;20029;-67
2023/12/18 06:14:23;;;;;;;0.40;0.40;;;;;;;6.62;100.00;100558.22;5066101;28;20053;-65
2023/12/18 06:16:49;;;;;;;0.40;0.40;;;;;;;6.60;100.00;100549.59;5047911;28;20207;-68
2023/12/18 06:19:14;;;;;;;0.40;0.40;;;;;;;6.60;100.00;100575.38;5065458;28;20017;-69
2023/12/18 06:21:41;;;;;;;0.40;0.40;;;;;;;6.60;100.00;100572.81;5047945;28;20025;-67
2023/12/18 06:24:07;;;;;;;0.40;0.40;;;;;;;6.57;100.00;100581.38;5047784;28;20025;-67
2023/12/18 06:26:38;;;;;;;0.40;0.40;;;;;;;6.54;100.00;100575.31;5065915;28;20078;-68
2023/12/18 06:29:03;;;;;;;0.40;0.40;;;;;;;6.54;100.00;100577.91;5065807;28;20093;-67
2023/12/18 06:31:29;;;;;;;0.40;0.40;;;;;;;6.52;100.00;100580.47;5065332;28;20021;-66
2023/12/18 06:33:54;;;;;;;0.30;0.30;;;;;;;6.56;100.00;100591.69;5047802;28;20070;-66
2023/12/18 06:36:20;;;;;;;0.35;0.35;;;;;;;6.55;100.00;100593.38;5064851;28;20024;-67
2023/12/18 06:38:46;;;;;;;0.40;0.40;;;;;;;6.54;100.00;100594.25;5065650;28;20017;-67
2023/12/18 06:41:11;;;;;;;0.40;0.40;;;;;;;6.53;100.00;100591.66;5047978;28;20047;-67
2023/12/18 06:43:37;;;;;;;0.40;0.40;;;;;;;6.51;100.00;100596.78;5065566;28;20024;-65
2023/12/18 06:46:03;;;;;;;0.40;0.40;;;;;;;6.52;100.00;100597.63;5065682;28;20017;-67
2023/12/18 06:48:29;;;;;;;0.40;0.40;;;;;;;6.50;100.00;100609.69;5047583;28;20032;-67
2023/12/18 06:50:54;;;;;;;0.40;0.40;;;;;;;6.44;100.00;100601.00;5065521;28;20370;-68
2023/12/18 06:53:19;;;;;;;0.40;0.40;;;;;;;6.45;100.00;100595.00;5065457;28;20020;-67
2023/12/18 06:55:45;;;;;;;0.40;0.40;;;;;;;6.47;100.00;100601.91;5065358;28;20021;-67
2023/12/18 06:58:10;;;;;;;0.40;0.40;;;;;;;6.50;100.00;100594.19;5065179;28;20024;-67
2023/12/18 07:00:36;;;;;;;0.40;0.40;;;;;;;6.50;100.00;100594.19;5065534;28;20025;-67
2023/12/18 07:03:01;;;;;;;0.40;0.40;;;;;;;6.56;100.00;100594.28;5065278;28;20020;-67
2023/12/18 07:05:29;;;;;;;0.40;0.40;;;;;;;6.54;100.00;100594.25;5065120;28;20025;-68
2023/12/18 07:07:55;;;;;;;0.40;0.40;;;;;;;6.58;100.00;100602.91;5065112;28;20032;-68
2023/12/18 07:10:20;;;;;;;0.38;0.38;;;;;;;6.60;100.00;100592.59;5047225;28;20063;-67
2023/12/18 07:12:46;;;;;;;0.40;0.40;;;;;;;6.62;100.00;100607.22;5065135;28;20017;-67
2023/12/18 07:15:12;;;;;;;0.40;0.40;;;;;;;6.63;100.00;100611.53;5065001;28;20045;-67
2023/12/18 07:17:37;;;;;;;0.40;0.40;;;;;;;6.65;100.00;100611.53;5064830;28;20035;-67
2023/12/18 07:20:05;;;;;;;0.40;0.40;;;;;;;6.63;100.00;100603.78;5065013;28;20025;-67
2023/12/18 07:22:35;;;;;;;0.40;0.40;;;;;;;6.62;100.00;100607.22;5065189;28;20025;-67
2023/12/18 07:25:01;;;;;;;0.40;0.40;;;;;;;6.65;100.00;100611.53;5064915;28;20332;-66
2023/12/18 07:27:27;;;;;;;0.40;0.40;;;;;;;6.62;100.00;100598.63;5064766;28;20032;-68
2023/12/18 07:29:52;;;;;;;0.40;0.40;;;;;;;6.64;100.00;100612.41;5063375;28;20017;-66
2023/12/18 07:32:17;;;;;;;0.40;0.40;;;;;;;6.62;100.00;100607.22;5064505;28;20021;-67
2023/12/18 07:34:43;;;;;;;0.40;0.40;;;;;;;6.64;100.00;100609.81;5065103;28;20030;-67
2023/12/18 07:37:08;;;;;;;0.35;0.35;;;;;;;6.62;100.00;100604.66;5064665;28;20076;-68
2023/12/18 07:39:34;;;;;;;0.40;0.40;;;;;;;6.34;100.00;100577.69;5064906;28;20436;-67
2023/12/18 07:42:03;;;;;;;0.40;0.40;;;;;;;6.60;100.00;100624.41;5064882;28;20060;-68
2023/12/18 07:44:28;;;;;;;0.40;0.40;;;;;;;6.59;100.00;100612.34;5064769;28;20398;-66
2023/12/18 07:46:54;;;;;;;0.40;0.40;;;;;;;6.58;100.00;100613.22;5049119;28;20047;-67
2023/12/18 07:49:19;;;;;;;0.30;0.30;;;;;;;6.60;100.00;100611.50;5050989;28;20032;-66
2023/12/18 07:51:44;;;;;;;0.40;0.40;;;;;;;6.57;100.00;100612.34;5068951;28;20268;-67
2023/12/18 07:54:10;;;;;;;0.40;0.40;;;;;;;6.55;100.00;100620.91;5069053;28;20024;-67
2023/12/18 07:56:35;;;;;;;0.40;0.40;;;;;;;6.52;100.00;100619.16;5068918;28;20047;-66
2023/12/18 07:59:01;;;;;;;0.40;0.40;;;;;;;6.50;100.00;100609.69;5068766;28;20029;-67
2023/12/18 08:01:26;;;;;;;0.30;0.30;;;;;;;6.48;100.00;100619.97;5068947;28;20401;-68
2023/12/18 08:03:52;;;;;;;0.30;0.30;;;;;;;6.43;100.00;100626.78;5050278;28;20124;-66
2023/12/18 08:06:17;;;;;;;0.40;0.40;;;;;;;6.46;100.00;100629.41;5068049;28;20017;-67
2023/12/18 08:08:43;;;;;;;0.40;0.40;;;;;;;6.44;100.00;100626.81;5068347;28;20020;-68
2023/12/18 08:11:09;;;;;;;0.30;0.30;;;;;;;6.42;100.00;100636.22;5050406;28;20021;-66
2023/12/18 08:13:38;;;;;;;0.40;0.40;;;;;;;6.34;100.00;100632.72;5068467;28;20031;-67
2023/12/18 08:16:05;;;;;;;0.40;0.40;;;;;;;6.36;100.00;100625.00;5068090;28;20049;-67
2023/12/18 08:18:31;;;;;;;0.40;0.40;;;;;;;6.36;100.00;100637.88;5068093;28;20131;-67
2023/12/18 08:20:56;;;;;;;0.40;0.40;;;;;;;6.35;100.00;100636.13;5050470;28;20025;-68
2023/12/18 08:23:21;;;;;;;0.40;0.40;;;;;;;6.32;100.00;100631.81;5068377;28;20021;-68
2023/12/18 08:25:47;;;;;;;0.40;0.40;;;;;;;6.26;100.00;100622.28;5050335;28;20021;-68
2023/12/18 08:28:12;;;;;;;0.40;0.40;;;;;;;6.26;100.00;100640.31;5068199;28;20080;-67
2023/12/18 08:30:37;;;;;;;0.40;0.40;;;;;;;6.27;100.00;100625.72;5068161;28;20082;-66
2023/12/18 08:33:03;;;;;;;0.40;0.40;;;;;;;6.25;100.00;100629.97;5049930;28;20025;-67
2023/12/18 08:35:28;;;;;;;0.40;0.40;;;;;;;6.23;100.00;100636.84;5050112;28;20021;-69
2023/12/18 08:37:53;;;;;;;0.40;0.40;;;;;;;6.21;100.00;100618.78;5068173;28;20028;-68
2023/12/18 08:40:19;;;;;;;0.40;0.40;;;;;;;6.21;100.00;100616.22;5067870;28;20567;-68
2023/12/18 08:42:44;;;;;;;0.40;0.40;;;;;;;6.23;100.00;100603.34;5050048;28;20029;-67
2023/12/18 08:45:09;;;;;;;0.40;0.40;;;;;;;6.18;100.00;100613.59;5067786;28;20025;-67
2023/12/18 08:47:35;;;;;;;0.40;0.40;;;;;;;6.19;100.00;100599.84;5067430;28;20090;-68
2023/12/18 08:50:00;;;;;;;0.40;0.40;;;;;;;6.12;100.00;100598.88;5068009;28;20035;-68
2023/12/18 08:52:26;;;;;;;0.50;0.50;;;;;;;6.12;100.00;100614.34;5067845;28;20021;-68
2023/12/18 08:54:51;;;;;;;0.40;0.40;;;;;;;6.13;100.00;100612.66;5049958;28;20025;-68
2023/12/18 08:57:16;;;;;;;0.40;0.40;;;;;;;6.14;100.00;100617.84;5066989;28;20384;-68
2023/12/18 08:59:42;;;;;;;0.40;0.40;;;;;;;6.10;100.00;100602.31;5067169;28;20024;-68
2023/12/18 09:02:07;;;;;;;0.40;0.40;;;;;;;6.10;100.00;100602.31;5067569;28;20045;-67
2023/12/18 09:04:33;;;;;;;0.40;0.40;;;;;;;6.10;100.00;100612.63;5049474;28;20393;-67
2023/12/18 09:06:58;;;;;;;0.35;0.35;;;;;;;6.06;100.00;100616.84;5067562;28;20021;-68
2023/12/18 09:09:24;;;;;;;0.40;0.40;;;;;;;6.03;100.00;100611.63;5067568;28;20051;-67
2023/12/18 09:11:49;;;;;;;0.40;0.40;;;;;;;6.05;100.00;100628.03;5050064;28;20115;-68
2023/12/18 09:14:17;;;;;;;0.40;0.40;;;;;;;6.10;100.00;100651.28;5067264;28;20021;-68
2023/12/18 09:16:43;;;;;;;0.40;0.40;;;;;;;6.03;100.00;100640.84;5067337;28;20052;-68
2023/12/18 09:19:09;;;;;;;0.40;0.40;;;;;;;6.00;100.00;100619.31;5067159;28;20053;-68
2023/12/18 09:21:34;;;;;;;0.40;0.40;;;;;;;6.01;100.00;100641.66;5067178;28;20032;-68
2023/12/18 09:24:00;;;;;;;0.40;0.40;;;;;;;6.00;100.00;100639.94;5067202;28;20089;-68
2023/12/18 09:26:25;;;;;;;0.40;0.40;;;;;;;6.02;100.00;100640.84;5067140;28;20038;-67
2023/12/18 09:28:56;;;;;;;0.40;0.40;;;;;;;6.02;100.00;100646.00;5067009;28;20029;-68
2023/12/18 09:31:21;;;;;;;0.40;0.40;;;;;;;6.00;100.00;100635.66;5067194;28;20029;-68
2023/12/18 09:33:47;;;;;;;0.40;0.40;;;;;;;6.06;100.00;100648.66;5066993;28;20085;-68
2023/12/18 09:36:15;;;;;;;0.40;0.40;;;;;;;6.04;100.00;100644.28;5066928;28;20025;-68
2023/12/18 09:38:40;;;;;;;0.40;0.40;;;;;;;6.04;100.00;100646.84;5066793;28;20024;-68
2023/12/18 09:41:07;;;;;;;0.35;0.35;;;;;;;6.06;100.00;100658.09;5049170;28;20027;-68
2023/12/18 09:43:33;;;;;;;0.40;0.40;;;;;;;6.05;100.00;100648.63;5048393;28;20036;-66
2023/12/18 09:45:58;;;;;;;0.40;0.40;;;;;;;6.05;100.00;100658.94;5066709;28;20021;-67
2023/12/18 09:48:24;;;;;;;0.40;0.40;;;;;;;6.07;100.00;100662.44;5066620;28;20039;-67
2023/12/18 09:50:49;;;;;;;0.30;0.30;;;;;;;6.06;100.00;100656.41;5066967;28;20032;-68
2023/12/18 09:53:20;;;;;;;0.40;0.40;;;;;;;6.08;100.00;100669.31;5066623;28;20028;-67
2023/12/18 09:55:48;;;;;;;0.40;0.40;;;;;;;6.11;100.00;100668.47;5048767;28;20500;-68
2023/12/18 09:58:18;;;;;;;0.40;0.40;;;;;;;6.08;100.00;100664.16;5047560;28;20448;-68
2023/12/18 10:00:47;;;;;;;0.40;0.40;;;;;;;6.11;100.00;100668.47;5046586;28;20052;-68
2023/12/18 10:03:15;;;;;;;0.40;0.40;;;;;;;6.14;100.00;100666.81;5065994;28;20024;-69
2023/12/18 10:05:42;;;;;;;0.40;0.40;;;;;;;6.15;100.00;100670.28;5066521;28;20025;-68
2023/12/18 10:08:09;;;;;;;0.40;0.40;;;;;;;6.13;100.00;100667.66;5066364;28;20044;-67
2023/12/18 10:10:35;;;;;;;0.40;0.40;;;;;;;6.16;100.00;100653.94;5065477;28;20092;-67
2023/12/18 10:13:05;;;;;;;0.40;0.40;;;;;;;6.16;100.00;100665.13;5066475;28;20128;-66
2023/12/18 10:15:32;;;;;;;0.60;0.60;;;;;;;6.16;100.00;100664.25;5048462;28;20068;-68
2023/12/18 10:17:57;;;;;;;0.40;0.40;;;;;;;6.26;100.00;100680.72;5046703;28;20044;-65
2023/12/18 10:20:23;;;;;;;0.40;0.40;;;;;;;6.26;100.00;100678.16;5065020;28;20028;-65
2023/12/18 10:22:48;;;;;;;0.40;0.40;;;;;;;6.27;100.00;100679.88;5048323;28;20056;-66
2023/12/18 10:25:16;;;;;;;0.40;0.40;;;;;;;6.30;100.00;100674.75;5065832;28;20040;-65
2023/12/18 10:27:42;;;;;;;0.40;0.40;;;;;;;6.34;100.00;100681.69;5065815;28;20382;-65
2023/12/18 10:30:08;;;;;;;0.40;0.40;;;;;;;6.34;100.00;100678.25;5066060;28;20024;-65
2023/12/18 10:32:36;;;;;;;0.40;0.40;;;;;;;6.31;100.00;100669.63;5047690;28;20075;-65
2023/12/18 10:35:02;;;;;;;0.40;0.40;;;;;;;6.37;100.00;100666.28;5065877;28;20039;-65
2023/12/18 10:37:30;;;;;;;0.40;0.40;;;;;;;6.40;100.00;100662.84;5065480;28;20482;-66
2023/12/18 10:40:03;;;;;;;0.40;0.40;;;;;;;6.39;100.00;100664.56;5047606;28;20033;-66
2023/12/18 10:42:31;;;;;;;0.40;0.40;;;;;;;6.42;100.00;100669.75;5065764;28;20028;-66
2023/12/18 10:44:59;;;;;;;0.40;0.40;;;;;;;6.40;100.00;100660.28;5047763;28;20096;-65
2023/12/18 10:47:26;;;;;;;0.40;0.40;;;;;;;6.42;100.00;100664.59;5065719;28;20056;-66
2023/12/18 10:49:52;;;;;;;0.40;0.40;;;;;;;6.38;100.00;100665.41;5065600;28;20029;-66
2023/12/18 10:52:20;;;;;;;0.40;0.40;;;;;;;6.38;100.00;100655.09;5065651;28;20073;-65
2023/12/18 10:54:49;;;;;;;0.40;0.40;;;;;;;6.36;100.00;100646.47;5065403;28;20039;-66
2023/12/18 10:57:23;;;;;;;0.40;0.40;;;;;;;6.46;100.00;100650.03;5047229;28;20036;-66
2023/12/18 10:59:52;;;;;;;0.40;0.40;;;;;;;6.47;100.00;100643.16;5065366;28;20029;-66
2023/12/18 11:02:21;;;;;;;0.40;0.40;;;;;;;6.52;100.00;100649.22;5047005;28;20052;-66
2023/12/18 11:04:56;;;;;;;0.40;0.40;;;;;;;6.46;100.00;100624.25;5065091;28;20025;-67
2023/12/18 11:07:29;;;;;;;0.40;0.40;;;;;;;6.44;100.00;100631.09;5065387;28;20021;-66
2023/12/18 11:09:58;;;;;;;0.40;0.40;;;;;;;6.44;100.00;100629.38;5047454;28;20025;-67
2023/12/18 11:12:25;;;;;;;0.40;0.40;;;;;;;6.44;100.00;100631.09;5065312;28;20032;-66
2023/12/18 11:15:09;;;;;;;0.40;0.40;;;;;;;6.48;100.00;100640.63;5046760;28;20045;-67
2023/12/18 11:17:59;;;;;;;0.40;0.40;;;;;;;6.43;100.00;100622.50;5064934;28;20100;-65